sensor_id;sensor_type;location;lat;lon;timestamp;P1;durP1;ratioP1;P2;durP2;ratioP2
21110;SDS011;10713;51.912;4.494;2023-04-24T00:02:20;5.93;;;3.10;;
21110;SDS011;10713;51.912;4.494;2023-04-24T00:04:47;5.07;;;2.78;;
21110;SDS011;10713;51.912;4.494;2023-04-24T00:07:13;7.57;;;3.92;;
21110;SDS011;10713;51.912;4.494;2023-04-24T00:09:42;5.97;;;3.60;;
21110;SDS011;10713;51.912;4.494;2023-04-24T00:12:08;7.68;;;2.70;;
21110;SDS011;10713;51.912;4.494;2023-04-24T00:14:34;7.80;;;3.60;;
21110;SDS011;10713;51.912;4.494;2023-04-24T00:17:00;4.60;;;3.13;;
21110;SDS011;10713;51.912;4.494;2023-04-24T00:19:27;6.90;;;3.85;;
21110;SDS011;10713;51.912;4.494;2023-04-24T00:21:53;5.18;;;3.78;;
21110;SDS011;10713;51.912;4.494;2023-04-24T00:24:19;8.48;;;4.53;;
21110;SDS011;10713;51.912;4.494;2023-04-24T00:26:45;7.65;;;3.70;;
21110;SDS011;10713;51.912;4.494;2023-04-24T00:29:11;6.78;;;3.72;;
21110;SDS011;10713;51.912;4.494;2023-04-24T00:31:36;5.78;;;3.72;;
21110;SDS011;10713;51.912;4.494;2023-04-24T00:34:02;8.80;;;4.20;;
21110;SDS011;10713;51.912;4.494;2023-04-24T00:36:28;7.63;;;3.83;;
21110;SDS011;10713;51.912;4.494;2023-04-24T00:38:54;4.68;;;3.20;;
21110;SDS011;10713;51.912;4.494;2023-04-24T00:41:20;3.47;;;2.53;;
21110;SDS011;10713;51.912;4.494;2023-04-24T00:43:46;6.50;;;3.60;;
21110;SDS011;10713;51.912;4.494;2023-04-24T00:46:12;7.45;;;3.75;;
21110;SDS011;10713;51.912;4.494;2023-04-24T00:48:39;5.63;;;3.95;;
21110;SDS011;10713;51.912;4.494;2023-04-24T00:51:05;6.35;;;3.30;;
21110;SDS011;10713;51.912;4.494;2023-04-24T00:53:30;5.03;;;2.90;;
21110;SDS011;10713;51.912;4.494;2023-04-24T00:55:56;6.40;;;3.90;;
21110;SDS011;10713;51.912;4.494;2023-04-24T00:58:22;6.03;;;3.40;;
21110;SDS011;10713;51.912;4.494;2023-04-24T01:00:48;7.25;;;4.00;;
21110;SDS011;10713;51.912;4.494;2023-04-24T01:03:15;8.07;;;3.75;;
21110;SDS011;10713;51.912;4.494;2023-04-24T01:05:41;5.13;;;2.83;;
21110;SDS011;10713;51.912;4.494;2023-04-24T01:08:06;7.15;;;4.97;;
21110;SDS011;10713;51.912;4.494;2023-04-24T01:10:32;10.05;;;4.15;;
21110;SDS011;10713;51.912;4.494;2023-04-24T01:12:59;6.78;;;3.60;;
21110;SDS011;10713;51.912;4.494;2023-04-24T01:15:25;9.48;;;5.30;;
21110;SDS011;10713;51.912;4.494;2023-04-24T01:17:50;9.48;;;5.55;;
21110;SDS011;10713;51.912;4.494;2023-04-24T01:20:16;12.52;;;6.22;;
21110;SDS011;10713;51.912;4.494;2023-04-24T01:22:42;12.30;;;6.50;;
21110;SDS011;10713;51.912;4.494;2023-04-24T01:25:07;9.52;;;5.47;;
21110;SDS011;10713;51.912;4.494;2023-04-24T01:27:33;10.65;;;6.22;;
21110;SDS011;10713;51.912;4.494;2023-04-24T01:29:58;9.93;;;5.20;;
21110;SDS011;10713;51.912;4.494;2023-04-24T01:32:24;8.23;;;5.28;;
21110;SDS011;10713;51.912;4.494;2023-04-24T01:34:50;9.00;;;5.10;;
21110;SDS011;10713;51.912;4.494;2023-04-24T01:37:16;9.18;;;5.32;;
21110;SDS011;10713;51.912;4.494;2023-04-24T01:39:42;8.13;;;4.85;;
21110;SDS011;10713;51.912;4.494;2023-04-24T01:42:08;14.32;;;4.55;;
21110;SDS011;10713;51.912;4.494;2023-04-24T01:44:34;8.35;;;4.25;;
21110;SDS011;10713;51.912;4.494;2023-04-24T01:47:00;9.50;;;4.28;;
21110;SDS011;10713;51.912;4.494;2023-04-24T01:49:26;6.93;;;3.80;;
21110;SDS011;10713;51.912;4.494;2023-04-24T01:51:51;7.05;;;4.13;;
21110;SDS011;10713;51.912;4.494;2023-04-24T01:54:17;6.13;;;3.63;;
21110;SDS011;10713;51.912;4.494;2023-04-24T01:56:43;6.22;;;4.57;;
21110;SDS011;10713;51.912;4.494;2023-04-24T01:59:12;6.30;;;4.40;;
21110;SDS011;10713;51.912;4.494;2023-04-24T02:01:38;7.75;;;4.53;;
21110;SDS011;10713;51.912;4.494;2023-04-24T02:04:04;6.85;;;4.35;;
21110;SDS011;10713;51.912;4.494;2023-04-24T02:06:30;8.10;;;4.22;;
21110;SDS011;10713;51.912;4.494;2023-04-24T02:08:57;4.28;;;3.40;;
21110;SDS011;10713;51.912;4.494;2023-04-24T02:11:23;5.30;;;3.50;;
21110;SDS011;10713;51.912;4.494;2023-04-24T02:13:48;8.00;;;4.20;;
21110;SDS011;10713;51.912;4.494;2023-04-24T02:16:15;5.70;;;3.05;;
21110;SDS011;10713;51.912;4.494;2023-04-24T02:18:40;6.53;;;3.92;;
21110;SDS011;10713;51.912;4.494;2023-04-24T02:21:06;8.00;;;3.63;;
21110;SDS011;10713;51.912;4.494;2023-04-24T02:23:31;5.35;;;3.42;;
21110;SDS011;10713;51.912;4.494;2023-04-24T02:25:56;5.40;;;3.28;;
21110;SDS011;10713;51.912;4.494;2023-04-24T02:28:22;4.97;;;3.35;;
21110;SDS011;10713;51.912;4.494;2023-04-24T02:30:47;4.32;;;2.72;;
21110;SDS011;10713;51.912;4.494;2023-04-24T02:33:12;6.95;;;3.05;;
21110;SDS011;10713;51.912;4.494;2023-04-24T02:35:38;4.38;;;2.95;;
21110;SDS011;10713;51.912;4.494;2023-04-24T02:38:03;4.60;;;3.10;;
21110;SDS011;10713;51.912;4.494;2023-04-24T02:40:29;8.65;;;3.53;;
21110;SDS011;10713;51.912;4.494;2023-04-24T02:42:54;5.85;;;3.40;;
21110;SDS011;10713;51.912;4.494;2023-04-24T02:45:20;3.97;;;2.70;;
21110;SDS011;10713;51.912;4.494;2023-04-24T02:47:45;5.22;;;2.83;;
21110;SDS011;10713;51.912;4.494;2023-04-24T02:50:11;4.97;;;3.17;;
21110;SDS011;10713;51.912;4.494;2023-04-24T02:52:36;4.47;;;2.70;;
21110;SDS011;10713;51.912;4.494;2023-04-24T02:55:02;4.45;;;2.80;;
21110;SDS011;10713;51.912;4.494;2023-04-24T02:57:27;3.35;;;2.40;;
21110;SDS011;10713;51.912;4.494;2023-04-24T02:59:52;3.85;;;2.05;;
21110;SDS011;10713;51.912;4.494;2023-04-24T03:02:18;5.78;;;2.13;;
21110;SDS011;10713;51.912;4.494;2023-04-24T03:04:43;4.53;;;1.92;;
21110;SDS011;10713;51.912;4.494;2023-04-24T03:07:09;2.83;;;1.90;;
21110;SDS011;10713;51.912;4.494;2023-04-24T03:09:34;2.78;;;1.65;;
21110;SDS011;10713;51.912;4.494;2023-04-24T03:11:59;4.57;;;1.73;;
21110;SDS011;10713;51.912;4.494;2023-04-24T03:14:25;3.38;;;2.05;;
21110;SDS011;10713;51.912;4.494;2023-04-24T03:16:50;3.05;;;2.03;;
21110;SDS011;10713;51.912;4.494;2023-04-24T03:19:16;2.88;;;1.90;;
21110;SDS011;10713;51.912;4.494;2023-04-24T03:21:41;4.05;;;1.70;;
21110;SDS011;10713;51.912;4.494;2023-04-24T03:24:07;4.28;;;1.70;;
21110;SDS011;10713;51.912;4.494;2023-04-24T03:26:34;3.45;;;1.45;;
21110;SDS011;10713;51.912;4.494;2023-04-24T03:29:00;3.63;;;1.50;;
21110;SDS011;10713;51.912;4.494;2023-04-24T03:31:25;2.53;;;1.35;;
21110;SDS011;10713;51.912;4.494;2023-04-24T03:33:50;1.50;;;1.30;;
21110;SDS011;10713;51.912;4.494;2023-04-24T03:36:16;3.83;;;1.38;;
21110;SDS011;10713;51.912;4.494;2023-04-24T03:38:42;2.03;;;1.50;;
21110;SDS011;10713;51.912;4.494;2023-04-24T03:41:07;3.63;;;1.40;;
21110;SDS011;10713;51.912;4.494;2023-04-24T03:43:32;2.85;;;1.50;;
21110;SDS011;10713;51.912;4.494;2023-04-24T03:45:59;3.53;;;2.08;;
21110;SDS011;10713;51.912;4.494;2023-04-24T03:48:25;3.88;;;1.90;;
21110;SDS011;10713;51.912;4.494;2023-04-24T03:50:50;4.75;;;1.90;;
21110;SDS011;10713;51.912;4.494;2023-04-24T03:53:15;1.50;;;1.40;;
21110;SDS011;10713;51.912;4.494;2023-04-24T03:55:41;3.20;;;2.10;;
21110;SDS011;10713;51.912;4.494;2023-04-24T03:58:06;4.50;;;2.30;;
21110;SDS011;10713;51.912;4.494;2023-04-24T04:00:32;3.40;;;1.50;;
21110;SDS011;10713;51.912;4.494;2023-04-24T04:02:58;6.15;;;1.88;;
21110;SDS011;10713;51.912;4.494;2023-04-24T04:05:23;2.28;;;1.60;;
21110;SDS011;10713;51.912;4.494;2023-04-24T04:07:49;3.22;;;1.20;;
21110;SDS011;10713;51.912;4.494;2023-04-24T04:10:14;4.13;;;1.60;;
21110;SDS011;10713;51.912;4.494;2023-04-24T04:12:39;5.68;;;1.60;;
21110;SDS011;10713;51.912;4.494;2023-04-24T04:15:05;3.13;;;1.80;;
21110;SDS011;10713;51.912;4.494;2023-04-24T04:17:32;4.15;;;1.90;;
21110;SDS011;10713;51.912;4.494;2023-04-24T04:19:57;3.97;;;1.70;;
21110;SDS011;10713;51.912;4.494;2023-04-24T04:22:23;3.45;;;1.90;;
21110;SDS011;10713;51.912;4.494;2023-04-24T04:24:48;3.60;;;1.60;;
21110;SDS011;10713;51.912;4.494;2023-04-24T04:27:15;4.88;;;1.30;;
21110;SDS011;10713;51.912;4.494;2023-04-24T04:29:41;2.10;;;1.35;;
21110;SDS011;10713;51.912;4.494;2023-04-24T04:32:07;1.70;;;1.40;;
21110;SDS011;10713;51.912;4.494;2023-04-24T04:34:32;2.70;;;1.60;;
21110;SDS011;10713;51.912;4.494;2023-04-24T04:36:58;2.50;;;1.55;;
21110;SDS011;10713;51.912;4.494;2023-04-24T04:39:27;2.92;;;2.03;;
21110;SDS011;10713;51.912;4.494;2023-04-24T04:41:53;4.63;;;2.65;;
21110;SDS011;10713;51.912;4.494;2023-04-24T04:44:18;9.13;;;2.95;;
21110;SDS011;10713;51.912;4.494;2023-04-24T04:46:44;9.35;;;2.60;;
21110;SDS011;10713;51.912;4.494;2023-04-24T04:49:09;4.40;;;1.98;;
21110;SDS011;10713;51.912;4.494;2023-04-24T04:51:35;3.83;;;1.83;;
21110;SDS011;10713;51.912;4.494;2023-04-24T04:54:01;7.05;;;3.50;;
21110;SDS011;10713;51.912;4.494;2023-04-24T04:56:26;4.80;;;2.70;;
21110;SDS011;10713;51.912;4.494;2023-04-24T04:58:52;4.70;;;2.88;;
21110;SDS011;10713;51.912;4.494;2023-04-24T05:01:18;9.38;;;4.55;;
21110;SDS011;10713;51.912;4.494;2023-04-24T05:03:43;10.48;;;4.43;;
21110;SDS011;10713;51.912;4.494;2023-04-24T05:06:09;7.47;;;5.05;;
21110;SDS011;10713;51.912;4.494;2023-04-24T05:08:34;15.57;;;6.72;;
21110;SDS011;10713;51.912;4.494;2023-04-24T05:10:59;16.83;;;5.65;;
21110;SDS011;10713;51.912;4.494;2023-04-24T05:13:25;10.40;;;6.28;;
21110;SDS011;10713;51.912;4.494;2023-04-24T05:15:51;12.93;;;6.75;;
21110;SDS011;10713;51.912;4.494;2023-04-24T05:18:16;8.88;;;4.65;;
21110;SDS011;10713;51.912;4.494;2023-04-24T05:20:42;11.68;;;5.68;;
21110;SDS011;10713;51.912;4.494;2023-04-24T05:23:08;10.02;;;5.25;;
21110;SDS011;10713;51.912;4.494;2023-04-24T05:25:34;12.32;;;4.60;;
21110;SDS011;10713;51.912;4.494;2023-04-24T05:28:01;16.30;;;6.55;;
21110;SDS011;10713;51.912;4.494;2023-04-24T05:30:26;21.88;;;7.72;;
21110;SDS011;10713;51.912;4.494;2023-04-24T05:32:52;19.15;;;8.38;;
21110;SDS011;10713;51.912;4.494;2023-04-24T05:35:17;20.45;;;7.43;;
21110;SDS011;10713;51.912;4.494;2023-04-24T05:37:43;14.15;;;6.18;;
21110;SDS011;10713;51.912;4.494;2023-04-24T05:40:09;16.77;;;8.35;;
21110;SDS011;10713;51.912;4.494;2023-04-24T05:42:35;19.17;;;7.85;;
21110;SDS011;10713;51.912;4.494;2023-04-24T05:45:00;26.90;;;10.10;;
21110;SDS011;10713;51.912;4.494;2023-04-24T05:47:26;13.18;;;6.97;;
21110;SDS011;10713;51.912;4.494;2023-04-24T05:49:51;14.48;;;6.95;;
21110;SDS011;10713;51.912;4.494;2023-04-24T05:52:18;17.02;;;7.20;;
21110;SDS011;10713;51.912;4.494;2023-04-24T05:54:43;23.15;;;9.35;;
21110;SDS011;10713;51.912;4.494;2023-04-24T05:57:08;17.95;;;7.82;;
21110;SDS011;10713;51.912;4.494;2023-04-24T05:59:36;26.38;;;9.10;;
21110;SDS011;10713;51.912;4.494;2023-04-24T06:02:05;13.77;;;7.18;;
21110;SDS011;10713;51.912;4.494;2023-04-24T06:04:31;17.50;;;6.65;;
21110;SDS011;10713;51.912;4.494;2023-04-24T06:06:57;17.73;;;6.55;;
21110;SDS011;10713;51.912;4.494;2023-04-24T06:09:22;14.25;;;7.28;;
21110;SDS011;10713;51.912;4.494;2023-04-24T06:11:48;24.27;;;8.82;;
21110;SDS011;10713;51.912;4.494;2023-04-24T06:14:14;23.35;;;6.45;;
21110;SDS011;10713;51.912;4.494;2023-04-24T06:16:41;21.42;;;6.13;;
21110;SDS011;10713;51.912;4.494;2023-04-24T06:19:07;18.88;;;5.53;;
21110;SDS011;10713;51.912;4.494;2023-04-24T06:21:32;22.50;;;6.18;;
21110;SDS011;10713;51.912;4.494;2023-04-24T06:23:58;24.35;;;6.40;;
21110;SDS011;10713;51.912;4.494;2023-04-24T06:26:23;19.02;;;6.10;;
21110;SDS011;10713;51.912;4.494;2023-04-24T06:28:50;13.63;;;4.40;;
21110;SDS011;10713;51.912;4.494;2023-04-24T06:31:16;15.18;;;4.63;;
21110;SDS011;10713;51.912;4.494;2023-04-24T06:33:41;21.50;;;4.78;;
21110;SDS011;10713;51.912;4.494;2023-04-24T06:36:07;25.77;;;5.57;;
21110;SDS011;10713;51.912;4.494;2023-04-24T06:38:33;15.98;;;5.40;;
21110;SDS011;10713;51.912;4.494;2023-04-24T06:40:59;17.70;;;4.55;;
21110;SDS011;10713;51.912;4.494;2023-04-24T06:43:24;24.25;;;5.85;;
21110;SDS011;10713;51.912;4.494;2023-04-24T06:45:50;18.08;;;5.15;;
21110;SDS011;10713;51.912;4.494;2023-04-24T06:48:15;19.52;;;6.13;;
21110;SDS011;10713;51.912;4.494;2023-04-24T06:50:40;25.42;;;4.95;;
21110;SDS011;10713;51.912;4.494;2023-04-24T06:53:06;17.17;;;4.72;;
21110;SDS011;10713;51.912;4.494;2023-04-24T06:55:31;16.92;;;4.78;;
21110;SDS011;10713;51.912;4.494;2023-04-24T06:57:57;18.75;;;4.75;;
21110;SDS011;10713;51.912;4.494;2023-04-24T07:00:22;20.08;;;4.28;;
21110;SDS011;10713;51.912;4.494;2023-04-24T07:02:49;22.30;;;4.65;;
21110;SDS011;10713;51.912;4.494;2023-04-24T07:05:14;19.23;;;4.40;;
21110;SDS011;10713;51.912;4.494;2023-04-24T07:07:40;23.73;;;5.10;;
21110;SDS011;10713;51.912;4.494;2023-04-24T07:10:06;21.98;;;4.60;;
21110;SDS011;10713;51.912;4.494;2023-04-24T07:12:33;14.60;;;3.67;;
21110;SDS011;10713;51.912;4.494;2023-04-24T07:14:59;15.73;;;3.75;;
21110;SDS011;10713;51.912;4.494;2023-04-24T07:17:25;20.10;;;3.95;;
21110;SDS011;10713;51.912;4.494;2023-04-24T07:19:50;17.33;;;3.75;;
21110;SDS011;10713;51.912;4.494;2023-04-24T07:22:16;22.65;;;3.80;;
21110;SDS011;10713;51.912;4.494;2023-04-24T07:24:45;18.27;;;3.78;;
21110;SDS011;10713;51.912;4.494;2023-04-24T07:27:10;14.05;;;3.90;;
21110;SDS011;10713;51.912;4.494;2023-04-24T07:29:36;18.00;;;3.72;;
21110;SDS011;10713;51.912;4.494;2023-04-24T07:32:02;14.88;;;3.63;;
21110;SDS011;10713;51.912;4.494;2023-04-24T07:34:27;12.95;;;3.70;;
21110;SDS011;10713;51.912;4.494;2023-04-24T07:36:52;13.98;;;2.85;;
21110;SDS011;10713;51.912;4.494;2023-04-24T07:39:18;12.73;;;2.95;;
21110;SDS011;10713;51.912;4.494;2023-04-24T07:41:43;17.63;;;3.53;;
21110;SDS011;10713;51.912;4.494;2023-04-24T07:44:08;14.73;;;3.63;;
21110;SDS011;10713;51.912;4.494;2023-04-24T07:46:34;13.02;;;2.83;;
21110;SDS011;10713;51.912;4.494;2023-04-24T07:48:59;10.80;;;3.00;;
21110;SDS011;10713;51.912;4.494;2023-04-24T07:51:26;15.13;;;3.13;;
21110;SDS011;10713;51.912;4.494;2023-04-24T07:53:55;13.25;;;2.85;;
21110;SDS011;10713;51.912;4.494;2023-04-24T07:56:21;12.90;;;2.70;;
21110;SDS011;10713;51.912;4.494;2023-04-24T07:58:46;12.93;;;3.28;;
21110;SDS011;10713;51.912;4.494;2023-04-24T08:01:12;16.02;;;3.10;;
21110;SDS011;10713;51.912;4.494;2023-04-24T08:03:37;15.20;;;3.03;;
21110;SDS011;10713;51.912;4.494;2023-04-24T08:06:02;22.08;;;3.83;;
21110;SDS011;10713;51.912;4.494;2023-04-24T08:08:28;19.00;;;4.97;;
21110;SDS011;10713;51.912;4.494;2023-04-24T08:10:53;15.27;;;3.05;;
21110;SDS011;10713;51.912;4.494;2023-04-24T08:13:19;12.85;;;2.65;;
21110;SDS011;10713;51.912;4.494;2023-04-24T08:15:45;8.05;;;2.38;;
21110;SDS011;10713;51.912;4.494;2023-04-24T08:18:11;11.48;;;2.88;;
21110;SDS011;10713;51.912;4.494;2023-04-24T08:20:37;10.20;;;2.63;;
21110;SDS011;10713;51.912;4.494;2023-04-24T08:23:02;8.70;;;2.58;;
21110;SDS011;10713;51.912;4.494;2023-04-24T08:25:28;8.07;;;2.58;;
21110;SDS011;10713;51.912;4.494;2023-04-24T08:27:53;9.35;;;2.67;;
21110;SDS011;10713;51.912;4.494;2023-04-24T08:30:19;11.02;;;2.67;;
21110;SDS011;10713;51.912;4.494;2023-04-24T08:32:45;9.27;;;2.40;;
21110;SDS011;10713;51.912;4.494;2023-04-24T08:35:10;8.80;;;2.50;;
21110;SDS011;10713;51.912;4.494;2023-04-24T08:37:36;11.73;;;2.50;;
21110;SDS011;10713;51.912;4.494;2023-04-24T08:40:03;5.53;;;1.88;;
21110;SDS011;10713;51.912;4.494;2023-04-24T08:42:35;5.72;;;1.95;;
21110;SDS011;10713;51.912;4.494;2023-04-24T08:45:03;12.05;;;2.35;;
21110;SDS011;10713;51.912;4.494;2023-04-24T08:47:28;9.07;;;1.90;;
21110;SDS011;10713;51.912;4.494;2023-04-24T08:49:54;6.43;;;2.10;;
21110;SDS011;10713;51.912;4.494;2023-04-24T08:52:20;9.95;;;2.03;;
21110;SDS011;10713;51.912;4.494;2023-04-24T08:54:47;6.55;;;1.75;;
21110;SDS011;10713;51.912;4.494;2023-04-24T08:57:12;6.22;;;1.90;;
21110;SDS011;10713;51.912;4.494;2023-04-24T08:59:39;9.30;;;2.10;;
21110;SDS011;10713;51.912;4.494;2023-04-24T09:02:05;10.25;;;1.85;;
21110;SDS011;10713;51.912;4.494;2023-04-24T09:04:34;9.32;;;2.00;;
21110;SDS011;10713;51.912;4.494;2023-04-24T09:07:00;9.38;;;2.03;;
21110;SDS011;10713;51.912;4.494;2023-04-24T09:09:27;8.20;;;1.80;;
21110;SDS011;10713;51.912;4.494;2023-04-24T09:11:55;4.50;;;1.58;;
21110;SDS011;10713;51.912;4.494;2023-04-24T09:14:22;7.97;;;1.80;;
21110;SDS011;10713;51.912;4.494;2023-04-24T09:16:48;8.30;;;1.77;;
21110;SDS011;10713;51.912;4.494;2023-04-24T09:19:14;4.55;;;1.85;;
21110;SDS011;10713;51.912;4.494;2023-04-24T09:21:40;6.93;;;1.50;;
21110;SDS011;10713;51.912;4.494;2023-04-24T09:24:07;5.13;;;1.85;;
21110;SDS011;10713;51.912;4.494;2023-04-24T09:26:39;5.97;;;1.67;;
21110;SDS011;10713;51.912;4.494;2023-04-24T09:29:05;6.18;;;1.40;;
21110;SDS011;10713;51.912;4.494;2023-04-24T09:31:30;3.40;;;1.25;;
21110;SDS011;10713;51.912;4.494;2023-04-24T09:34:00;5.88;;;2.08;;
21110;SDS011;10713;51.912;4.494;2023-04-24T09:36:34;3.92;;;0.95;;
21110;SDS011;10713;51.912;4.494;2023-04-24T09:39:07;5.82;;;1.27;;
21110;SDS011;10713;51.912;4.494;2023-04-24T09:41:34;7.47;;;1.48;;
21110;SDS011;10713;51.912;4.494;2023-04-24T09:44:15;6.10;;;1.50;;
21110;SDS011;10713;51.912;4.494;2023-04-24T09:46:43;6.05;;;2.03;;
21110;SDS011;10713;51.912;4.494;2023-04-24T09:49:12;4.72;;;1.30;;
21110;SDS011;10713;51.912;4.494;2023-04-24T09:51:38;3.90;;;1.58;;
21110;SDS011;10713;51.912;4.494;2023-04-24T09:54:05;5.47;;;1.20;;
21110;SDS011;10713;51.912;4.494;2023-04-24T09:56:41;6.07;;;1.10;;
21110;SDS011;10713;51.912;4.494;2023-04-24T09:59:08;2.78;;;0.90;;
21110;SDS011;10713;51.912;4.494;2023-04-24T10:01:33;5.38;;;1.10;;
21110;SDS011;10713;51.912;4.494;2023-04-24T10:03:59;7.93;;;1.25;;
21110;SDS011;10713;51.912;4.494;2023-04-24T10:06:32;7.00;;;1.55;;
21110;SDS011;10713;51.912;4.494;2023-04-24T10:08:58;8.30;;;1.70;;
21110;SDS011;10713;51.912;4.494;2023-04-24T10:11:28;5.78;;;1.23;;
21110;SDS011;10713;51.912;4.494;2023-04-24T10:13:55;7.72;;;1.30;;
21110;SDS011;10713;51.912;4.494;2023-04-24T10:16:22;5.68;;;1.30;;
21110;SDS011;10713;51.912;4.494;2023-04-24T10:18:48;3.72;;;1.30;;
21110;SDS011;10713;51.912;4.494;2023-04-24T10:21:14;5.13;;;1.48;;
21110;SDS011;10713;51.912;4.494;2023-04-24T10:23:40;4.20;;;1.25;;
21110;SDS011;10713;51.912;4.494;2023-04-24T10:26:08;6.82;;;1.30;;
21110;SDS011;10713;51.912;4.494;2023-04-24T10:28:34;10.38;;;1.83;;
21110;SDS011;10713;51.912;4.494;2023-04-24T10:31:01;5.75;;;1.38;;
21110;SDS011;10713;51.912;4.494;2023-04-24T10:33:27;6.72;;;1.35;;
21110;SDS011;10713;51.912;4.494;2023-04-24T10:35:54;4.47;;;1.30;;
21110;SDS011;10713;51.912;4.494;2023-04-24T10:38:26;8.23;;;1.48;;
21110;SDS011;10713;51.912;4.494;2023-04-24T10:40:57;9.30;;;1.52;;
21110;SDS011;10713;51.912;4.494;2023-04-24T10:43:33;7.53;;;1.33;;
21110;SDS011;10713;51.912;4.494;2023-04-24T10:46:02;7.20;;;1.65;;
21110;SDS011;10713;51.912;4.494;2023-04-24T10:48:29;10.18;;;1.52;;
21110;SDS011;10713;51.912;4.494;2023-04-24T10:50:55;16.20;;;2.03;;
21110;SDS011;10713;51.912;4.494;2023-04-24T10:53:21;15.82;;;2.20;;
21110;SDS011;10713;51.912;4.494;2023-04-24T10:55:59;10.27;;;1.80;;
21110;SDS011;10713;51.912;4.494;2023-04-24T10:58:38;8.10;;;1.65;;
21110;SDS011;10713;51.912;4.494;2023-04-24T11:01:28;5.53;;;1.30;;
21110;SDS011;10713;51.912;4.494;2023-04-24T11:04:01;6.70;;;1.48;;
21110;SDS011;10713;51.912;4.494;2023-04-24T11:06:29;5.97;;;1.23;;
21110;SDS011;10713;51.912;4.494;2023-04-24T11:09:06;7.55;;;1.98;;
21110;SDS011;10713;51.912;4.494;2023-04-24T11:11:37;6.63;;;1.73;;
21110;SDS011;10713;51.912;4.494;2023-04-24T11:14:08;5.65;;;1.25;;
21110;SDS011;10713;51.912;4.494;2023-04-24T11:16:35;12.95;;;2.00;;
21110;SDS011;10713;51.912;4.494;2023-04-24T11:24:21;3.80;;;1.00;;
21110;SDS011;10713;51.912;4.494;2023-04-24T11:26:47;3.15;;;1.05;;
21110;SDS011;10713;51.912;4.494;2023-04-24T11:29:13;4.90;;;0.90;;
21110;SDS011;10713;51.912;4.494;2023-04-24T11:31:44;7.57;;;1.20;;
21110;SDS011;10713;51.912;4.494;2023-04-24T11:34:14;4.70;;;1.00;;
21110;SDS011;10713;51.912;4.494;2023-04-24T11:36:44;4.93;;;1.13;;
21110;SDS011;10713;51.912;4.494;2023-04-24T11:39:11;3.70;;;0.90;;
21110;SDS011;10713;51.912;4.494;2023-04-24T11:41:37;2.90;;;0.90;;
21110;SDS011;10713;51.912;4.494;2023-04-24T11:44:03;8.95;;;1.13;;
21110;SDS011;10713;51.912;4.494;2023-04-24T11:46:30;4.18;;;1.08;;
21110;SDS011;10713;51.912;4.494;2023-04-24T11:48:56;5.57;;;1.25;;
21110;SDS011;10713;51.912;4.494;2023-04-24T11:51:24;6.05;;;1.30;;
21110;SDS011;10713;51.912;4.494;2023-04-24T11:53:51;4.50;;;1.20;;
21110;SDS011;10713;51.912;4.494;2023-04-24T11:56:18;4.78;;;1.50;;
21110;SDS011;10713;51.912;4.494;2023-04-24T11:58:44;5.82;;;1.70;;
21110;SDS011;10713;51.912;4.494;2023-04-24T12:01:11;5.00;;;1.70;;
21110;SDS011;10713;51.912;4.494;2023-04-24T12:03:37;8.43;;;1.45;;
21110;SDS011;10713;51.912;4.494;2023-04-24T12:06:06;6.07;;;1.80;;
21110;SDS011;10713;51.912;4.494;2023-04-24T12:08:32;4.32;;;1.42;;
21110;SDS011;10713;51.912;4.494;2023-04-24T12:10:59;9.82;;;1.55;;
21110;SDS011;10713;51.912;4.494;2023-04-24T12:13:26;11.52;;;2.03;;
21110;SDS011;10713;51.912;4.494;2023-04-24T12:15:51;5.97;;;1.63;;
21110;SDS011;10713;51.912;4.494;2023-04-24T12:18:16;7.53;;;1.77;;
21110;SDS011;10713;51.912;4.494;2023-04-24T12:20:42;8.35;;;1.70;;
21110;SDS011;10713;51.912;4.494;2023-04-24T12:23:07;8.88;;;1.80;;
21110;SDS011;10713;51.912;4.494;2023-04-24T12:25:33;9.88;;;1.95;;
21110;SDS011;10713;51.912;4.494;2023-04-24T12:30:27;6.53;;;1.85;;
21110;SDS011;10713;51.912;4.494;2023-04-24T12:32:53;10.35;;;1.90;;
21110;SDS011;10713;51.912;4.494;2023-04-24T12:35:20;11.32;;;2.30;;
21110;SDS011;10713;51.912;4.494;2023-04-24T12:37:47;9.02;;;2.00;;
21110;SDS011;10713;51.912;4.494;2023-04-24T12:40:13;12.35;;;2.30;;
21110;SDS011;10713;51.912;4.494;2023-04-24T12:42:43;12.98;;;2.40;;
21110;SDS011;10713;51.912;4.494;2023-04-24T12:45:15;8.02;;;2.00;;
21110;SDS011;10713;51.912;4.494;2023-04-24T12:47:43;7.03;;;1.80;;
21110;SDS011;10713;51.912;4.494;2023-04-24T12:50:10;6.10;;;1.98;;
21110;SDS011;10713;51.912;4.494;2023-04-24T12:52:37;6.78;;;1.83;;
21110;SDS011;10713;51.912;4.494;2023-04-24T12:55:04;7.78;;;1.77;;
21110;SDS011;10713;51.912;4.494;2023-04-24T12:57:33;18.83;;;3.03;;
21110;SDS011;10713;51.912;4.494;2023-04-24T12:59:59;8.90;;;2.05;;
21110;SDS011;10713;51.912;4.494;2023-04-24T13:02:27;5.60;;;1.88;;
21110;SDS011;10713;51.912;4.494;2023-04-24T13:04:56;8.77;;;2.13;;
21110;SDS011;10713;51.912;4.494;2023-04-24T13:07:25;10.55;;;2.67;;
21110;SDS011;10713;51.912;4.494;2023-04-24T13:09:52;10.27;;;2.75;;
21110;SDS011;10713;51.912;4.494;2023-04-24T13:12:19;9.80;;;2.30;;
21110;SDS011;10713;51.912;4.494;2023-04-24T13:14:45;7.20;;;1.92;;
21110;SDS011;10713;51.912;4.494;2023-04-24T13:17:11;14.77;;;2.50;;
21110;SDS011;10713;51.912;4.494;2023-04-24T13:19:38;7.75;;;2.45;;
21110;SDS011;10713;51.912;4.494;2023-04-24T13:22:08;13.27;;;2.75;;
21110;SDS011;10713;51.912;4.494;2023-04-24T13:24:34;12.57;;;2.90;;
21110;SDS011;10713;51.912;4.494;2023-04-24T13:27:00;8.93;;;2.80;;
21110;SDS011;10713;51.912;4.494;2023-04-24T13:29:26;8.50;;;2.67;;
21110;SDS011;10713;51.912;4.494;2023-04-24T13:31:52;11.38;;;2.85;;
21110;SDS011;10713;51.912;4.494;2023-04-24T13:34:22;9.70;;;3.20;;
21110;SDS011;10713;51.912;4.494;2023-04-24T13:36:52;25.65;;;6.47;;
21110;SDS011;10713;51.912;4.494;2023-04-24T13:39:18;24.00;;;6.45;;
21110;SDS011;10713;51.912;4.494;2023-04-24T13:41:43;16.48;;;3.40;;
21110;SDS011;10713;51.912;4.494;2023-04-24T13:44:10;12.93;;;3.92;;
21110;SDS011;10713;51.912;4.494;2023-04-24T13:46:35;15.75;;;3.45;;
21110;SDS011;10713;51.912;4.494;2023-04-24T13:49:01;12.98;;;3.63;;
21110;SDS011;10713;51.912;4.494;2023-04-24T13:51:28;10.80;;;3.13;;
21110;SDS011;10713;51.912;4.494;2023-04-24T13:53:54;20.92;;;3.65;;
21110;SDS011;10713;51.912;4.494;2023-04-24T13:56:20;16.60;;;4.15;;
21110;SDS011;10713;51.912;4.494;2023-04-24T13:58:45;16.48;;;4.70;;
21110;SDS011;10713;51.912;4.494;2023-04-24T14:01:11;17.52;;;3.50;;
21110;SDS011;10713;51.912;4.494;2023-04-24T14:03:37;11.05;;;3.25;;
21110;SDS011;10713;51.912;4.494;2023-04-24T14:06:03;11.57;;;3.50;;
21110;SDS011;10713;51.912;4.494;2023-04-24T14:08:28;11.35;;;3.42;;
21110;SDS011;10713;51.912;4.494;2023-04-24T14:10:53;11.30;;;3.90;;
21110;SDS011;10713;51.912;4.494;2023-04-24T14:13:19;9.35;;;3.10;;
21110;SDS011;10713;51.912;4.494;2023-04-24T14:15:45;15.88;;;3.42;;
21110;SDS011;10713;51.912;4.494;2023-04-24T14:18:11;10.35;;;3.50;;
21110;SDS011;10713;51.912;4.494;2023-04-24T14:20:36;13.02;;;3.83;;
21110;SDS011;10713;51.912;4.494;2023-04-24T14:23:01;16.02;;;4.78;;
21110;SDS011;10713;51.912;4.494;2023-04-24T14:25:27;17.35;;;4.32;;
21110;SDS011;10713;51.912;4.494;2023-04-24T14:27:53;14.45;;;4.43;;
21110;SDS011;10713;51.912;4.494;2023-04-24T14:30:18;15.20;;;3.72;;
21110;SDS011;10713;51.912;4.494;2023-04-24T14:32:44;11.20;;;3.80;;
21110;SDS011;10713;51.912;4.494;2023-04-24T14:35:09;18.65;;;4.50;;
21110;SDS011;10713;51.912;4.494;2023-04-24T14:37:35;12.05;;;3.55;;
21110;SDS011;10713;51.912;4.494;2023-04-24T14:40:01;23.15;;;4.25;;
21110;SDS011;10713;51.912;4.494;2023-04-24T14:42:26;15.00;;;3.95;;
21110;SDS011;10713;51.912;4.494;2023-04-24T14:44:53;24.95;;;3.72;;
21110;SDS011;10713;51.912;4.494;2023-04-24T14:47:19;13.60;;;4.07;;